Time;durP1;ratioP1;P1;durP2;ratioP2;P2;SDS_P1;SDS_P2;PMS_P1;PMS_P2;Temp;Humidity;BMP_temperature;BMP_pressure;BME280_temperature;BME280_humidity;BME280_pressure;Samples;Min_cycle;Max_cycle;Signal;HPM_P1;HPM_P2
2022/11/23 00:00:00;;;;;;;1.13;1.13;;;8.60;99.90;;;;;;5113383;28;20429;-77
2022/11/23 00:02:26;;;;;;;3.25;1.20;;;8.60;99.90;;;;;;5112599;28;20028;-77
2022/11/23 00:04:51;;;;;;;1.50;1.40;;;8.60;99.90;;;;;;5113193;28;20352;-77
2022/11/23 00:07:17;;;;;;;1.25;1.13;;;8.60;99.90;;;;;;5113558;28;20028;-77
2022/11/23 00:09:43;;;;;;;1.63;1.52;;;8.60;99.90;;;;;;5112964;28;20448;-77
2022/11/23 00:12:09;;;;;;;1.35;1.30;;;8.50;99.90;;;;;;5113353;28;20019;-76
2022/11/23 00:14:34;;;;;;;1.98;1.50;;;8.50;99.90;;;;;;5113066;28;20034;-77
2022/11/23 00:17:00;;;;;;;2.17;1.42;;;8.50;99.90;;;;;;5113229;28;20020;-77
2022/11/23 00:19:26;;;;;;;1.30;1.20;;;8.50;99.90;;;;;;5113078;28;20027;-77
2022/11/23 00:21:51;;;;;;;1.63;1.38;;;8.50;99.90;;;;;;5113111;28;20024;-76
2022/11/23 00:24:17;;;;;;;1.10;1.00;;;8.40;99.90;;;;;;5111746;28;20028;-77
2022/11/23 00:26:43;;;;;;;1.88;1.08;;;8.40;99.90;;;;;;5113286;28;20034;-77
2022/11/23 00:29:08;;;;;;;1.00;1.00;;;8.40;99.90;;;;;;5113342;28;20024;-77
2022/11/23 00:31:34;;;;;;;1.00;1.00;;;8.40;99.90;;;;;;5111843;28;20387;-77
2022/11/23 00:34:01;;;;;;;2.90;1.00;;;8.30;99.90;;;;;;5113063;28;20026;-77
2022/11/23 00:36:27;;;;;;;1.00;1.00;;;8.30;99.90;;;;;;5113164;28;20016;-77
2022/11/23 00:38:54;;;;;;;1.30;1.20;;;8.30;99.90;;;;;;5112954;28;20027;-77
2022/11/23 00:41:22;;;;;;;1.00;1.00;;;8.30;99.90;;;;;;5113031;28;20024;-77
2022/11/23 00:43:48;;;;;;;1.85;1.05;;;8.20;99.90;;;;;;5112940;28;20023;-77
2022/11/23 00:46:20;;;;;;;0.73;0.73;;;8.20;99.90;;;;;;5111710;28;20495;-77
2022/11/23 00:48:47;;;;;;;1.60;1.20;;;8.20;99.90;;;;;;5111426;28;20030;-77
2022/11/23 00:51:16;;;;;;;1.00;1.00;;;8.20;99.90;;;;;;5112548;28;20027;-78
2022/11/23 00:53:42;;;;;;;1.30;1.20;;;8.20;99.90;;;;;;5112576;28;20027;-76
2022/11/23 00:56:07;;;;;;;1.33;1.15;;;8.10;99.90;;;;;;5112940;28;20386;-76
2022/11/23 00:58:36;;;;;;;1.05;1.05;;;8.20;99.90;;;;;;5103497;28;20077;-77
2022/11/23 01:01:09;;;;;;;2.20;0.90;;;8.20;99.90;;;;;;5092557;28;20020;-77
2022/11/23 01:03:36;;;;;;;1.30;1.02;;;8.20;99.90;;;;;;5092465;28;20020;-77
2022/11/23 01:06:07;;;;;;;1.38;1.27;;;8.20;99.90;;;;;;5092418;28;20020;-77
2022/11/23 01:08:33;;;;;;;1.95;1.35;;;8.10;99.90;;;;;;5092352;28;20090;-76
2022/11/23 01:11:01;;;;;;;1.33;1.23;;;8.20;99.90;;;;;;5092690;28;20027;-76
2022/11/23 01:13:27;;;;;;;1.40;1.30;;;8.10;99.90;;;;;;5092115;28;20032;-77
2022/11/23 01:15:52;;;;;;;1.10;1.00;;;8.10;99.90;;;;;;5096122;28;20069;-77
2022/11/23 01:18:19;;;;;;;0.77;0.77;;;8.10;99.90;;;;;;5096015;28;20032;-77
2022/11/23 01:20:45;;;;;;;1.30;1.05;;;8.10;99.90;;;;;;5095970;28;20368;-76
2022/11/23 01:23:10;;;;;;;1.58;1.48;;;8.10;99.90;;;;;;5094706;28;20054;-77
2022/11/23 01:25:36;;;;;;;1.73;1.38;;;7.90;99.90;;;;;;5094695;28;20073;-76
2022/11/23 01:28:02;;;;;;;2.17;1.25;;;7.90;99.90;;;;;;5100666;28;20023;-77
2022/11/23 01:30:27;;;;;;;1.17;1.05;;;7.90;99.90;;;;;;5116104;28;20027;-77
2022/11/23 01:32:53;;;;;;;1.65;1.40;;;7.90;99.90;;;;;;5116276;28;20015;-77
2022/11/23 01:35:19;;;;;;;1.10;1.00;;;7.90;99.90;;;;;;5115995;28;20027;-77
2022/11/23 01:37:45;;;;;;;1.05;1.05;;;7.80;99.90;;;;;;5116344;28;20049;-77
2022/11/23 01:40:11;;;;;;;1.67;1.58;;;7.80;99.90;;;;;;5116210;28;20425;-77
2022/11/23 01:42:47;;;;;;;1.30;1.20;;;7.70;99.90;;;;;;5116096;28;20020;-76
2022/11/23 01:45:41;;;;;;;1.33;1.23;;;7.70;99.90;;;;;;5115889;28;20501;-77
2022/11/23 01:48:18;;;;;;;1.67;1.25;;;7.70;99.90;;;;;;5116019;27;20385;-77
2022/11/23 01:50:47;;;;;;;1.42;1.33;;;7.60;99.90;;;;;;5116098;28;20031;-77
2022/11/23 01:53:14;;;;;;;2.15;1.20;;;7.60;99.90;;;;;;5115837;28;20026;-77
2022/11/23 01:56:00;;;;;;;1.73;1.42;;;7.60;99.90;;;;;;5115788;28;20027;-76
2022/11/23 01:58:29;;;;;;;2.33;1.40;;;7.50;99.90;;;;;;5114408;28;20492;-77
2022/11/23 02:00:56;;;;;;;2.95;1.55;;;7.50;99.90;;;;;;5114486;28;20024;-76
2022/11/23 02:03:21;;;;;;;1.70;1.60;;;7.40;99.90;;;;;;5115560;28;20429;-77
2022/11/23 02:05:52;;;;;;;2.22;1.60;;;7.30;99.90;;;;;;5115908;28;20023;-77
2022/11/23 02:08:20;;;;;;;1.70;1.60;;;7.20;99.90;;;;;;5114167;28;20036;-77
2022/11/23 02:10:46;;;;;;;1.92;1.70;;;6.90;99.90;;;;;;5115450;28;20076;-77
2022/11/23 02:13:13;;;;;;;1.52;1.42;;;6.90;99.90;;;;;;5115364;28;20019;-77
2022/11/23 02:15:40;;;;;;;1.63;1.52;;;6.90;99.90;;;;;;5115333;28;20372;-77
2022/11/23 02:18:15;;;;;;;2.08;1.50;;;6.90;99.90;;;;;;5115193;28;20410;-77
2022/11/23 02:20:43;;;;;;;2.00;1.90;;;6.80;99.90;;;;;;5114213;28;20066;-76
2022/11/23 02:23:42;;;;;;;2.22;1.52;;;6.80;99.90;;;;;;5115421;28;20048;-76
2022/11/23 02:26:15;;;;;;;1.58;1.48;;;6.70;99.90;;;;;;5113443;28;20020;-77
2022/11/23 02:28:51;;;;;;;1.92;1.27;;;6.80;99.90;;;;;;5115243;28;20020;-76
2022/11/23 02:31:17;;;;;;;1.23;1.13;;;6.70;99.90;;;;;;5113827;28;20032;-76
2022/11/23 02:33:43;;;;;;;1.30;1.20;;;6.70;99.90;;;;;;5113734;28;20119;-76
2022/11/23 02:36:34;;;;;;;1.50;1.40;;;6.80;99.90;;;;;;5115165;28;20483;-77
2022/11/23 02:39:08;;;;;;;1.42;1.10;;;6.70;99.90;;;;;;5115028;28;20027;-76
2022/11/23 02:41:38;;;;;;;1.00;1.00;;;6.70;99.90;;;;;;5114951;28;20378;-76
2022/11/23 02:44:10;;;;;;;1.20;1.15;;;6.70;99.90;;;;;;5113611;28;20136;-77
2022/11/23 02:46:36;;;;;;;1.20;1.10;;;6.60;99.90;;;;;;5114906;28;20027;-77
2022/11/23 02:49:02;;;;;;;0.85;0.85;;;6.60;99.90;;;;;;5114903;28;20479;-77
2022/11/23 02:51:28;;;;;;;2.15;0.82;;;6.60;99.90;;;;;;5113406;28;20118;-76
2022/11/23 02:53:53;;;;;;;0.95;0.90;;;6.60;99.90;;;;;;5113402;28;20035;-76
2022/11/23 02:56:19;;;;;;;1.00;1.00;;;6.70;99.90;;;;;;5114774;28;20107;-77
2022/11/23 02:58:45;;;;;;;2.03;0.70;;;6.70;99.90;;;;;;5114499;28;20024;-77
2022/11/23 03:01:11;;;;;;;0.90;0.90;;;6.70;99.90;;;;;;5114576;28;20406;-77
2022/11/23 03:03:36;;;;;;;0.80;0.80;;;6.70;99.90;;;;;;5113142;28;20114;-77
2022/11/23 03:06:02;;;;;;;1.38;1.00;;;6.70;99.90;;;;;;5112978;28;20069;-77
2022/11/23 03:08:28;;;;;;;0.60;0.60;;;6.80;99.90;;;;;;5114403;28;20134;-77
2022/11/23 03:10:53;;;;;;;1.13;0.88;;;6.80;99.90;;;;;;5113144;28;20030;-77
2022/11/23 03:13:19;;;;;;;1.15;0.90;;;6.70;99.90;;;;;;5114379;28;20024;-77
2022/11/23 03:15:45;;;;;;;0.77;0.77;;;6.70;99.90;;;;;;5114173;28;20024;-77
2022/11/23 03:18:10;;;;;;;0.95;0.65;;;6.70;99.90;;;;;;5114112;28;20110;-77
2022/11/23 03:20:36;;;;;;;1.83;0.63;;;6.70;99.90;;;;;;5112910;28;20057;-77
2022/11/23 03:23:02;;;;;;;0.68;0.65;;;6.60;99.90;;;;;;5114137;28;20020;-77
2022/11/23 03:25:28;;;;;;;0.52;0.52;;;6.60;99.90;;;;;;5114146;28;20015;-77
2022/11/23 03:27:53;;;;;;;1.13;0.55;;;6.60;99.90;;;;;;5110293;28;20028;-77
2022/11/23 03:30:19;;;;;;;0.50;0.50;;;6.70;99.90;;;;;;5092355;28;20034;-77
2022/11/23 03:32:45;;;;;;;0.40;0.40;;;6.60;99.90;;;;;;5093502;28;20046;-76
2022/11/23 03:35:11;;;;;;;0.60;0.60;;;6.80;99.90;;;;;;5092036;28;20459;-77
2022/11/23 03:37:37;;;;;;;1.45;0.52;;;6.70;99.90;;;;;;5092797;28;20020;-76
2022/11/23 03:40:03;;;;;;;0.52;0.50;;;6.80;99.90;;;;;;5091938;28;20032;-77
2022/11/23 03:42:29;;;;;;;0.30;0.30;;;6.80;99.90;;;;;;5092237;28;20024;-77
2022/11/23 03:44:54;;;;;;;0.60;0.60;;;6.80;99.90;;;;;;5093233;28;20052;-76
2022/11/23 03:47:20;;;;;;;0.60;0.60;;;6.70;99.90;;;;;;5093373;28;20110;-76
2022/11/23 03:49:46;;;;;;;0.40;0.40;;;6.70;99.90;;;;;;5092018;28;20052;-77
2022/11/23 03:52:12;;;;;;;0.85;0.70;;;6.60;99.90;;;;;;5093302;28;20036;-77
2022/11/23 03:54:38;;;;;;;1.15;0.77;;;6.50;99.90;;;;;;5093180;28;20040;-77
2022/11/23 03:57:03;;;;;;;0.70;0.70;;;6.50;99.90;;;;;;5091820;28;20036;-77
2022/11/23 03:59:29;;;;;;;2.20;0.63;;;6.50;99.90;;;;;;5110258;28;20024;-76
2022/11/23 04:01:55;;;;;;;0.60;0.50;;;6.40;99.90;;;;;;5113385;28;20028;-77
2022/11/23 04:04:21;;;;;;;1.00;0.55;;;6.40;99.90;;;;;;5113373;28;20031;-77
2022/11/23 04:06:46;;;;;;;0.63;0.50;;;6.20;99.90;;;;;;5112202;28;20076;-77
2022/11/23 04:09:12;;;;;;;0.60;0.60;;;6.30;99.90;;;;;;5111818;28;20047;-77
2022/11/23 04:11:38;;;;;;;3.53;0.73;;;6.20;99.90;;;;;;5112284;28;20051;-77
2022/11/23 04:14:04;;;;;;;2.42;0.40;;;6.20;99.90;;;;;;5112058;28;20027;-77
2022/11/23 04:16:29;;;;;;;1.13;0.68;;;6.20;99.90;;;;;;5112003;28;20550;-77
2022/11/23 04:18:55;;;;;;;1.02;0.80;;;6.00;99.90;;;;;;5112011;28;20032;-76
2022/11/23 04:21:21;;;;;;;0.93;0.93;;;6.10;99.90;;;;;;5113272;28;20056;-77
2022/11/23 04:23:46;;;;;;;0.75;0.75;;;6.20;99.90;;;;;;5111382;28;20486;-77
2022/11/23 04:26:12;;;;;;;2.78;0.70;;;6.10;99.90;;;;;;5112234;28;20028;-77
2022/11/23 04:28:38;;;;;;;0.80;0.80;;;6.00;99.90;;;;;;5111919;28;20037;-76
2022/11/23 04:31:04;;;;;;;0.50;0.50;;;6.00;99.90;;;;;;5113244;28;20027;-76
2022/11/23 04:33:30;;;;;;;0.68;0.68;;;6.00;99.90;;;;;;5111944;28;20383;-77
2022/11/23 04:35:56;;;;;;;1.67;0.63;;;5.90;99.90;;;;;;5111876;28;20118;-77
2022/11/23 04:38:22;;;;;;;1.00;1.00;;;5.80;99.90;;;;;;5113053;28;20542;-76
2022/11/23 04:40:48;;;;;;;1.23;1.20;;;5.80;99.90;;;;;;5111738;28;20122;-77
2022/11/23 04:43:13;;;;;;;1.30;1.23;;;5.60;99.90;;;;;;5113027;28;20032;-76
2022/11/23 04:45:39;;;;;;;1.38;1.27;;;5.70;99.90;;;;;;5113192;28;20020;-77
2022/11/23 04:48:06;;;;;;;1.80;1.70;;;5.80;99.90;;;;;;5113396;28;20024;-77
2022/11/23 04:50:33;;;;;;;3.83;1.70;;;5.80;99.90;;;;;;5117390;28;20027;-77
2022/11/23 04:52:59;;;;;;;3.53;2.10;;;5.90;99.90;;;;;;5117131;28;20024;-77
2022/11/23 04:55:25;;;;;;;2.50;2.30;;;6.00;99.90;;;;;;5117038;28;20031;-76
2022/11/23 04:57:50;;;;;;;2.30;2.20;;;6.00;99.90;;;;;;5113838;28;20474;-76
2022/11/23 05:00:16;;;;;;;2.10;1.95;;;6.00;99.90;;;;;;5096555;28;20043;-77
2022/11/23 05:02:42;;;;;;;2.45;2.25;;;5.90;99.90;;;;;;5096453;28;20360;-76
2022/11/23 05:05:08;;;;;;;2.28;2.08;;;5.90;99.90;;;;;;5096243;28;20102;-77
2022/11/23 05:07:34;;;;;;;2.45;2.35;;;5.90;99.90;;;;;;5096549;28;20055;-76
2022/11/23 05:10:00;;;;;;;2.72;2.25;;;5.90;99.90;;;;;;5096060;28;20076;-77
2022/11/23 05:12:25;;;;;;;3.20;3.00;;;5.90;99.90;;;;;;5096585;28;20020;-77
2022/11/23 05:14:51;;;;;;;2.95;2.75;;;5.90;99.90;;;;;;5094719;28;20491;-77
2022/11/23 05:17:17;;;;;;;3.17;2.95;;;5.80;99.90;;;;;;5095990;28;20024;-77
2022/11/23 05:19:44;;;;;;;3.20;2.90;;;5.90;99.90;;;;;;5094810;28;20030;-76
2022/11/23 05:22:10;;;;;;;2.90;2.70;;;5.80;99.90;;;;;;5094947;28;20059;-77
2022/11/23 05:24:35;;;;;;;2.63;2.53;;;5.80;99.90;;;;;;5095896;28;20514;-76
2022/11/23 05:27:01;;;;;;;2.88;2.67;;;5.80;99.90;;;;;;5096040;28;20052;-76
2022/11/23 05:29:27;;;;;;;3.95;3.13;;;5.90;99.90;;;;;;5111438;28;20026;-76
2022/11/23 05:31:53;;;;;;;3.03;2.83;;;5.90;99.90;;;;;;5116149;28;20019;-76
2022/11/23 05:34:19;;;;;;;3.85;3.03;;;5.80;99.90;;;;;;5116258;28;20026;-77
2022/11/23 05:36:44;;;;;;;4.55;3.83;;;5.80;99.90;;;;;;5114940;28;20020;-76
2022/11/23 05:39:10;;;;;;;3.90;3.60;;;5.70;99.90;;;;;;5116179;28;20028;-77
2022/11/23 05:41:36;;;;;;;3.30;3.10;;;5.60;99.90;;;;;;5114866;28;20028;-76
2022/11/23 05:44:02;;;;;;;3.83;3.58;;;5.50;99.90;;;;;;5114353;28;20034;-77
2022/11/23 05:46:28;;;;;;;5.10;4.60;;;5.50;99.90;;;;;;5116026;28;20030;-77
2022/11/23 05:48:53;;;;;;;5.90;4.88;;;5.60;99.90;;;;;;5115906;28;20035;-76
2022/11/23 05:51:19;;;;;;;5.63;5.13;;;5.60;99.90;;;;;;5115922;28;20081;-77
2022/11/23 05:53:45;;;;;;;6.65;5.90;;;5.60;99.90;;;;;;5115822;28;20439;-77
2022/11/23 05:56:11;;;;;;;6.65;5.95;;;5.60;99.90;;;;;;5115764;28;20023;-76
2022/11/23 05:58:36;;;;;;;5.78;5.35;;;5.60;99.90;;;;;;5106091;28;20020;-76
2022/11/23 06:01:02;;;;;;;5.10;4.70;;;5.60;99.90;;;;;;5094285;28;20499;-77
2022/11/23 06:03:28;;;;;;;6.53;5.90;;;5.60;99.90;;;;;;5094014;28;20368;-77
2022/11/23 06:05:54;;;;;;;7.80;7.00;;;5.60;99.90;;;;;;5093803;28;20016;-76
2022/11/23 06:08:19;;;;;;;7.38;6.45;;;5.60;99.90;;;;;;5095081;28;20495;-77
2022/11/23 06:10:45;;;;;;;9.32;7.05;;;5.60;99.90;;;;;;5095160;28;20027;-77
2022/11/23 06:13:11;;;;;;;7.65;6.95;;;5.60;99.90;;;;;;5095021;28;20633;-77
2022/11/23 06:15:37;;;;;;;7.85;6.93;;;5.60;99.90;;;;;;5095135;28;20016;-77
2022/11/23 06:18:02;;;;;;;6.90;6.25;;;5.60;99.90;;;;;;5094401;28;20063;-76
2022/11/23 06:20:28;;;;;;;7.45;6.80;;;5.60;99.90;;;;;;5093734;28;20028;-76
2022/11/23 06:22:55;;;;;;;7.28;6.63;;;5.60;99.90;;;;;;5094788;28;20476;-76
2022/11/23 06:25:21;;;;;;;8.25;6.75;;;5.60;99.90;;;;;;5094765;28;20085;-77
2022/11/23 06:27:58;;;;;;;8.60;5.80;;;5.70;99.90;;;;;;5097666;28;20017;-76
2022/11/23 06:30:25;;;;;;;8.07;7.28;;;5.60;99.90;;;;;;5115085;28;20042;-77
2022/11/23 06:32:51;;;;;;;8.75;7.95;;;5.60;99.90;;;;;;5113809;28;20024;-77
2022/11/23 06:35:17;;;;;;;9.05;7.93;;;5.50;99.90;;;;;;5113735;27;20024;-77
2022/11/23 06:37:43;;;;;;;9.40;8.48;;;5.50;99.90;;;;;;5112588;28;20028;-76
2022/11/23 06:40:10;;;;;;;8.27;7.57;;;5.60;99.90;;;;;;5112984;28;20031;-76
2022/11/23 06:42:36;;;;;;;8.73;7.85;;;5.60;99.90;;;;;;5114396;28;20411;-76
2022/11/23 06:45:02;;;;;;;8.40;7.60;;;5.50;99.90;;;;;;5114354;28;20016;-76
2022/11/23 06:47:28;;;;;;;8.02;7.30;;;5.60;99.90;;;;;;5114803;28;20016;-77
2022/11/23 06:49:54;;;;;;;8.82;7.93;;;5.60;99.90;;;;;;5113505;28;20034;-77
2022/11/23 06:52:19;;;;;;;9.20;7.75;;;5.60;99.90;;;;;;5113498;28;20023;-76
2022/11/23 06:54:45;;;;;;;8.68;6.70;;;5.70;99.90;;;;;;5114664;28;20027;-77
2022/11/23 06:57:11;;;;;;;8.23;7.38;;;5.70;99.90;;;;;;5114623;27;20020;-76
2022/11/23 06:59:37;;;;;;;7.80;7.00;;;5.70;99.90;;;;;;5114430;28;20035;-77
2022/11/23 07:02:03;;;;;;;7.80;7.00;;;5.70;99.90;;;;;;5114573;28;20055;-77
2022/11/23 07:04:29;;;;;;;7.60;5.97;;;5.70;99.90;;;;;;5113237;28;20016;-77
2022/11/23 07:06:54;;;;;;;6.22;5.72;;;5.80;99.90;;;;;;5114374;28;20016;-77
2022/11/23 07:09:20;;;;;;;6.72;6.03;;;5.80;99.90;;;;;;5114353;28;20529;-76
2022/11/23 07:11:46;;;;;;;6.13;5.50;;;5.80;99.90;;;;;;5114271;28;20102;-76
2022/11/23 07:14:12;;;;;;;5.38;4.75;;;5.90;99.90;;;;;;5112970;28;20031;-76
2022/11/23 07:16:38;;;;;;;7.40;6.50;;;5.90;99.90;;;;;;5114147;28;20052;-77
2022/11/23 07:19:03;;;;;;;6.93;6.22;;;6.00;99.90;;;;;;5114323;28;20027;-77
2022/11/23 07:21:29;;;;;;;6.13;5.53;;;6.10;99.90;;;;;;5112722;28;20114;-76
2022/11/23 07:23:55;;;;;;;7.47;5.55;;;6.10;99.90;;;;;;5112961;28;20050;-77
2022/11/23 07:26:21;;;;;;;8.63;5.50;;;6.20;99.90;;;;;;5112839;28;20539;-77
2022/11/23 07:28:46;;;;;;;6.53;4.82;;;6.10;99.90;;;;;;5112705;28;20015;-76
2022/11/23 07:31:14;;;;;;;5.25;4.72;;;6.20;99.90;;;;;;5114059;28;20390;-77
2022/11/23 07:33:45;;;;;;;5.25;4.75;;;6.20;99.90;;;;;;5112620;28;20034;-77
2022/11/23 07:36:11;;;;;;;6.18;5.57;;;6.30;99.90;;;;;;5112525;28;20111;-76
2022/11/23 07:38:37;;;;;;;5.50;5.03;;;6.30;99.90;;;;;;5113761;28;20100;-77
2022/11/23 07:41:02;;;;;;;5.97;5.45;;;6.30;99.90;;;;;;5112222;28;20062;-76
2022/11/23 07:43:29;;;;;;;6.00;5.47;;;6.40;99.90;;;;;;5113749;28;20019;-76
2022/11/23 07:45:56;;;;;;;7.63;4.82;;;6.40;99.90;;;;;;5113805;28;20023;-77
2022/11/23 07:48:35;;;;;;;4.80;4.40;;;6.50;99.90;;;;;;5113753;28;20016;-77
2022/11/23 07:51:01;;;;;;;4.68;4.28;;;6.50;99.90;;;;;;5112442;28;20081;-76
2022/11/23 07:53:26;;;;;;;5.78;5.28;;;6.50;99.90;;;;;;5113430;28;20425;-77
2022/11/23 07:55:58;;;;;;;5.07;4.30;;;6.60;99.90;;;;;;5113657;28;20034;-76
2022/11/23 07:58:24;;;;;;;5.82;4.63;;;6.60;99.90;;;;;;5113521;28;20119;-77
2022/11/23 08:00:50;;;;;;;5.07;4.60;;;6.70;99.90;;;;;;5113671;28;20020;-76
2022/11/23 08:03:15;;;;;;;4.97;4.47;;;6.70;99.90;;;;;;5112117;28;20547;-76
2022/11/23 08:05:41;;;;;;;4.60;4.05;;;6.70;99.90;;;;;;5112246;28;20043;-77
2022/11/23 08:08:11;;;;;;;4.03;3.72;;;6.70;99.90;;;;;;5113112;28;20089;-77
2022/11/23 08:10:37;;;;;;;4.53;4.03;;;6.80;99.90;;;;;;5111998;28;20024;-77
2022/11/23 08:13:05;;;;;;;4.82;4.30;;;6.80;99.90;;;;;;5113323;28;20026;-76
2022/11/23 08:15:31;;;;;;;5.20;4.47;;;6.90;99.90;;;;;;5113504;28;20102;-77
2022/11/23 08:17:59;;;;;;;4.97;4.57;;;7.00;99.90;;;;;;5111857;28;20090;-77
2022/11/23 08:20:26;;;;;;;4.82;4.43;;;7.00;99.90;;;;;;5112875;28;20084;-81
2022/11/23 08:22:54;;;;;;;5.22;4.82;;;7.10;99.90;;;;;;5112572;28;20016;-80
2022/11/23 08:25:21;;;;;;;5.43;4.47;;;7.10;99.90;;;;;;5111749;28;20018;-81
2022/11/23 08:27:47;;;;;;;7.03;5.45;;;7.20;99.90;;;;;;5111726;28;20051;-82
2022/11/23 08:30:13;;;;;;;6.07;5.57;;;7.20;99.90;;;;;;5111595;28;20058;-81
2022/11/23 08:32:39;;;;;;;7.40;5.05;;;7.30;99.90;;;;;;5113118;28;20050;-82
2022/11/23 08:35:20;;;;;;;6.22;5.38;;;7.40;99.90;;;;;;5111858;28;20074;-81
2022/11/23 08:37:46;;;;;;;7.43;5.65;;;7.40;99.90;;;;;;5091576;28;20036;-81
2022/11/23 08:40:12;;;;;;;6.18;5.45;;;7.50;99.90;;;;;;5091437;28;20086;-81
2022/11/23 08:42:38;;;;;;;5.65;5.15;;;7.60;99.90;;;;;;5091492;28;20502;-81
2022/11/23 08:45:05;;;;;;;5.70;5.10;;;7.70;99.90;;;;;;5091340;28;20052;-81
2022/11/23 08:47:31;;;;;;;6.18;5.43;;;7.70;99.90;;;;;;5112454;28;20217;-81
2022/11/23 08:49:57;;;;;;;7.05;5.32;;;7.80;99.90;;;;;;5113092;28;20093;-82
2022/11/23 08:52:25;;;;;;;6.03;5.28;;;7.80;99.90;;;;;;5112854;28;20510;-81
2022/11/23 08:54:51;;;;;;;6.30;5.25;;;7.90;99.90;;;;;;5111599;28;20578;-81
2022/11/23 08:57:17;;;;;;;7.55;5.50;;;7.90;99.90;;;;;;5111665;28;20356;-81
2022/11/23 08:59:43;;;;;;;7.43;5.85;;;8.00;99.90;;;;;;5111582;28;20038;-81
2022/11/23 09:02:12;;;;;;;7.00;5.80;;;8.10;99.90;;;;;;5112928;28;20098;-81
2022/11/23 09:04:42;;;;;;;7.38;6.40;;;8.10;99.90;;;;;;5111649;28;20015;-81
2022/11/23 09:07:10;;;;;;;6.60;5.85;;;8.10;99.90;;;;;;5111673;28;20057;-81
2022/11/23 09:09:36;;;;;;;6.93;6.22;;;8.20;99.90;;;;;;5111412;28;20071;-81
2022/11/23 09:12:02;;;;;;;11.57;8.15;;;8.30;99.90;;;;;;5112712;28;20506;-79
2022/11/23 09:14:28;;;;;;;13.68;8.15;;;8.40;99.90;;;;;;5111479;28;20020;-81
2022/11/23 09:16:54;;;;;;;14.55;8.05;;;8.40;99.90;;;;;;5112820;28;20027;-81
2022/11/23 09:19:20;;;;;;;11.88;9.75;;;8.50;99.90;;;;;;5111691;28;20176;-81
2022/11/23 09:21:46;;;;;;;9.55;8.05;;;8.50;99.90;;;;;;5111455;28;20024;-80
2022/11/23 09:24:12;;;;;;;15.60;8.82;;;8.60;99.90;;;;;;5112727;28;20127;-80
2022/11/23 09:26:39;;;;;;;13.00;10.77;;;8.60;99.90;;;;;;5112754;28;20367;-81
2022/11/23 09:29:07;;;;;;;17.52;12.10;;;8.70;99.90;;;;;;5102727;28;20496;-81
2022/11/23 09:31:32;;;;;;;16.77;11.70;;;8.80;99.90;;;;;;5109579;28;20050;-81
2022/11/23 09:34:18;;;;;;;17.23;11.48;;;8.70;99.90;;;;;;5112099;28;20035;-81
2022/11/23 09:36:46;;;;;;;12.88;11.38;;;8.80;99.90;;;;;;5094381;28;20495;-80
2022/11/23 09:39:12;;;;;;;16.23;11.90;;;8.90;99.90;;;;;;5115284;28;20055;-80
2022/11/23 09:42:05;;;;;;;14.77;11.90;;;8.80;99.90;;;;;;5137179;27;20390;-80
2022/11/23 09:45:08;;;;;;;13.15;11.02;;;8.90;99.90;;;;;;5114496;28;20023;-80
2022/11/23 09:48:01;;;;;;;13.07;10.82;;;9.00;99.90;;;;;;5114103;28;20015;-81
2022/11/23 09:50:44;;;;;;;21.88;11.50;;;9.10;99.90;;;;;;5111461;28;20084;-80
2022/11/23 09:53:14;;;;;;;15.45;11.65;;;9.30;99.90;;;;;;5114264;28;20395;-81
2022/11/23 09:55:52;;;;;;;15.30;11.10;;;9.20;99.90;;;;;;5114347;28;20058;-80
2022/11/23 09:58:29;;;;;;;15.77;10.85;;;9.30;99.90;;;;;;5111313;28;20110;-81
2022/11/23 10:01:11;;;;;;;23.52;12.05;;;9.30;99.90;;;;;;5114977;28;20024;-80
2022/11/23 10:03:46;;;;;;;16.00;12.32;;;9.40;99.90;;;;;;5138216;27;20027;-81
2022/11/23 10:06:15;;;;;;;13.65;11.65;;;9.50;99.90;;;;;;5114255;28;20030;-81
2022/11/23 10:08:47;;;;;;;15.75;12.15;;;9.60;99.90;;;;;;5114218;28;20053;-81
2022/11/23 10:11:40;;;;;;;19.27;11.60;;;9.60;99.90;;;;;;5114236;28;20036;-81
2022/11/23 10:14:39;;;;;;;15.20;11.93;;;9.70;99.90;;;;;;5111199;28;20039;-80
2022/11/23 10:17:15;;;;;;;12.13;10.27;;;9.70;99.90;;;;;;5113896;28;20038;-80
2022/11/23 10:20:12;;;;;;;8.43;7.70;;;9.70;99.90;;;;;;5112354;28;20165;-80
2022/11/23 10:22:44;;;;;;;15.30;8.88;;;9.80;99.90;;;;;;5114052;28;20016;-81
2022/11/23 10:25:19;;;;;;;14.75;11.10;;;9.90;99.90;;;;;;5114998;28;20043;-80
2022/11/23 10:27:47;;;;;;;16.08;10.48;;;10.00;99.90;;;;;;5104449;28;20031;-77
2022/11/23 10:30:15;;;;;;;11.63;9.63;;;10.00;99.90;;;;;;5103640;28;20115;-77
2022/11/23 10:32:48;;;;;;;10.90;9.10;;;10.10;99.90;;;;;;5104960;28;20039;-76
2022/11/23 10:35:22;;;;;;;10.07;9.07;;;10.00;99.90;;;;;;5113433;28;20023;-76
2022/11/23 10:37:48;;;;;;;10.80;9.25;;;10.00;99.90;;;;;;5096134;28;20028;-76
2022/11/23 10:40:20;;;;;;;14.05;9.48;;;10.00;99.90;;;;;;5094648;28;20437;-76
2022/11/23 10:42:55;;;;;;;11.55;9.15;;;10.10;99.90;;;;;;5093250;28;20364;-77
2022/11/23 10:45:28;;;;;;;10.18;8.50;;;10.10;99.90;;;;;;5094382;28;20391;-77
2022/11/23 10:47:59;;;;;;;6.68;5.88;;;10.10;99.90;;;;;;5092837;28;20024;-77
2022/11/23 10:50:32;;;;;;;23.75;21.45;;;10.20;99.90;;;;;;5093128;28;20043;-77
2022/11/23 10:53:27;;;;;;;9.88;8.88;;;10.50;99.90;;;;;;5094333;28;20441;-77
2022/11/23 10:55:58;;;;;;;12.63;8.15;;;10.70;99.90;;;;;;5092944;28;20028;-77
2022/11/23 10:58:24;;;;;;;9.13;7.55;;;10.60;99.90;;;;;;5127020;27;20032;-77
2022/11/23 11:01:02;;;;;;;10.80;8.23;;;10.40;99.90;;;;;;5092580;28;20526;-82
2022/11/23 11:03:32;;;;;;;11.60;9.57;;;10.40;99.90;;;;;;5092870;28;20096;-82
2022/11/23 11:05:58;;;;;;;10.50;9.40;;;10.40;99.90;;;;;;5094280;28;20089;-83
2022/11/23 11:08:47;;;;;;;15.68;10.57;;;10.40;99.90;;;;;;5092781;28;20036;-83
2022/11/23 11:11:25;;;;;;;13.20;10.27;;;10.40;99.90;;;;;;5093978;28;20028;-83
2022/11/23 11:14:22;;;;;;;15.90;10.88;;;10.50;99.90;;;;;;5092531;28;20031;-77
2022/11/23 11:16:51;;;;;;;11.25;9.25;;;10.60;99.90;;;;;;5092324;28;20028;-76
2022/11/23 11:19:31;;;;;;;10.43;9.32;;;10.50;99.90;;;;;;5092409;28;20107;-76
2022/11/23 11:22:03;;;;;;;13.48;10.18;;;10.60;99.90;;;;;;5092021;28;20024;-77
2022/11/23 11:24:43;;;;;;;13.63;10.10;;;10.70;99.90;;;;;;5093581;28;20023;-77
2022/11/23 11:27:14;;;;;;;13.00;10.50;;;10.70;99.90;;;;;;5092575;28;20020;-77
2022/11/23 11:29:43;;;;;;;14.57;10.90;;;10.70;99.90;;;;;;5111014;28;20053;-77
2022/11/23 11:32:30;;;;;;;13.07;10.02;;;10.70;99.90;;;;;;5111880;28;20031;-77
2022/11/23 11:35:07;;;;;;;13.57;9.95;;;10.70;99.90;;;;;;5113937;28;20064;-77
2022/11/23 11:37:38;;;;;;;13.10;10.55;;;10.70;99.90;;;;;;5114094;28;20032;-76
2022/11/23 11:40:24;;;;;;;13.30;9.55;;;10.70;99.90;;;;;;5113496;28;20084;-77
2022/11/23 11:43:02;;;;;;;12.13;8.98;;;10.80;99.90;;;;;;5112169;28;20020;-77
2022/11/23 11:45:33;;;;;;;12.05;8.50;;;10.80;99.90;;;;;;5112025;28;20047;-77
2022/11/23 11:48:03;;;;;;;11.70;9.05;;;10.90;99.90;;;;;;5113628;28;20020;-77
2022/11/23 11:50:35;;;;;;;11.88;9.55;;;10.90;99.90;;;;;;5112303;28;20020;-77
2022/11/23 11:53:11;;;;;;;13.65;8.70;;;10.90;99.90;;;;;;5112212;28;20371;-77
2022/11/23 11:55:55;;;;;;;14.23;9.18;;;10.90;99.90;;;;;;5112556;28;20032;-76
2022/11/23 11:58:24;;;;;;;16.08;9.77;;;10.90;99.90;;;;;;5113174;28;20156;-76
2022/11/23 12:01:02;;;;;;;13.05;9.32;;;11.00;99.90;;;;;;5113469;28;20082;-77
2022/11/23 12:03:42;;;;;;;10.00;8.75;;;11.00;99.90;;;;;;5111907;28;20028;-77
2022/11/23 12:06:25;;;;;;;9.90;8.35;;;11.10;99.90;;;;;;5112082;28;20024;-76
2022/11/23 12:09:00;;;;;;;9.30;8.07;;;11.10;99.90;;;;;;5111973;28;20046;-76
2022/11/23 12:11:26;;;;;;;11.38;7.88;;;11.20;99.90;;;;;;5112223;28;20471;-77
2022/11/23 12:14:00;;;;;;;10.05;8.30;;;11.20;99.90;;;;;;5111910;28;20039;-76
2022/11/23 12:16:33;;;;;;;12.80;8.27;;;11.20;99.90;;;;;;5111976;28;20031;-77
2022/11/23 12:19:14;;;;;;;10.32;8.00;;;11.20;99.90;;;;;;5113262;28;20028;-77
2022/11/23 12:22:02;;;;;;;9.25;6.68;;;11.30;99.90;;;;;;5111930;28;20035;-77
2022/11/23 12:24:51;;;;;;;8.45;6.95;;;11.30;99.90;;;;;;5083737;28;20036;-77
2022/11/23 12:27:35;;;;;;;9.15;7.50;;;11.30;99.90;;;;;;5113040;28;20060;-77
2022/11/23 12:30:19;;;;;;;7.38;6.65;;;11.30;99.90;;;;;;5113096;28;20020;-77
2022/11/23 12:32:54;;;;;;;7.72;6.90;;;11.20;99.90;;;;;;5113053;28;20024;-77
2022/11/23 12:35:38;;;;;;;9.63;7.68;;;11.20;99.90;;;;;;5111786;28;20027;-77
2022/11/23 12:38:29;;;;;;;8.75;7.30;;;11.20;99.90;;;;;;5111971;28;20031;-77
2022/11/23 12:41:15;;;;;;;11.37;7.77;;;11.20;99.90;;;;;;5111425;28;20038;-76
2022/11/23 12:44:06;;;;;;;9.70;7.75;;;11.20;99.90;;;;;;5112549;28;20265;-77
2022/11/23 12:46:59;;;;;;;8.30;7.30;;;11.10;99.90;;;;;;5113020;28;20028;-76
2022/11/23 12:49:52;;;;;;;8.18;6.65;;;11.10;99.90;;;;;;5111504;28;20028;-76
2022/11/23 12:52:33;;;;;;;8.32;7.53;;;11.10;99.90;;;;;;5112627;28;20106;-77
2022/11/23 12:55:18;;;;;;;9.23;7.30;;;11.10;99.90;;;;;;5110752;28;20039;-77
2022/11/23 12:58:02;;;;;;;7.72;7.03;;;11.10;99.90;;;;;;5111190;28;20045;-77
2022/11/23 13:00:39;;;;;;;10.52;7.13;;;11.10;99.90;;;;;;5112853;28;20076;-76
2022/11/23 13:03:11;;;;;;;12.48;8.10;;;11.10;99.90;;;;;;5112666;28;20024;-77
2022/11/23 13:05:49;;;;;;;12.65;7.68;;;11.10;99.90;;;;;;5111534;28;20461;-76